sensor_id;sensor_type;location;lat;lon;timestamp;pressure;altitude;pressure_sealevel;temperature;humidity
6194;BME280;3130;41.564;23.280;2023-02-19T00:01:06;99390.50;;;6.81;71.06
6194;BME280;3130;41.564;23.280;2023-02-19T00:03:33;99326.47;;;6.46;71.06
6194;BME280;3130;41.564;23.280;2023-02-19T00:06:01;99378.63;;;6.80;71.45
6194;BME280;3130;41.564;23.280;2023-02-19T00:08:29;99391.97;;;6.87;70.86
6194;BME280;3130;41.564;23.280;2023-02-19T00:11:01;99267.28;;;6.16;71.30
6194;BME280;3130;41.564;23.280;2023-02-19T00:13:29;99215.47;;;5.96;71.04
6194;BME280;3130;41.564;23.280;2023-02-19T00:15:56;99349.47;;;6.66;71.03
6194;BME280;3130;41.564;23.280;2023-02-19T00:18:25;99202.72;;;5.73;71.19
6194;BME280;3130;41.564;23.280;2023-02-19T00:20:54;99381.44;;;6.74;71.58
6194;BME280;3130;41.564;23.280;2023-02-19T00:23:21;99368.63;;;6.53;72.19
6194;BME280;3130;41.564;23.280;2023-02-19T00:25:49;99353.31;;;6.31;73.18
6194;BME280;3130;41.564;23.280;2023-02-19T00:28:17;99384.06;;;6.50;73.46
6194;BME280;3130;41.564;23.280;2023-02-19T00:30:44;99297.63;;;5.99;73.07
6194;BME280;3130;41.564;23.280;2023-02-19T00:33:12;99363.88;;;6.44;73.18
6194;BME280;3130;41.564;23.280;2023-02-19T00:35:39;99284.19;;;5.96;73.51
6194;BME280;3130;41.564;23.280;2023-02-19T00:38:06;99260.00;;;5.85;73.79
6194;BME280;3130;41.564;23.280;2023-02-19T00:40:33;99362.25;;;6.41;74.15
6194;BME280;3130;41.564;23.280;2023-02-19T00:43:00;99366.31;;;6.47;74.10
6194;BME280;3130;41.564;23.280;2023-02-19T00:45:29;99351.31;;;6.39;73.84
6194;BME280;3130;41.564;23.280;2023-02-19T00:47:56;99360.66;;;6.39;74.24
6194;BME280;3130;41.564;23.280;2023-02-19T00:50:23;99313.50;;;6.06;74.21
6194;BME280;3130;41.564;23.280;2023-02-19T00:52:50;99246.44;;;5.60;74.84
6194;BME280;3130;41.564;23.280;2023-02-19T00:55:17;99357.09;;;6.20;75.44
6194;BME280;3130;41.564;23.280;2023-02-19T00:57:44;99318.34;;;5.89;74.59
6194;BME280;3130;41.564;23.280;2023-02-19T01:00:12;99359.03;;;6.13;75.14
6194;BME280;3130;41.564;23.280;2023-02-19T01:02:41;99262.41;;;5.63;75.07
6194;BME280;3130;41.564;23.280;2023-02-19T01:05:08;99294.75;;;5.86;74.83
6194;BME280;3130;41.564;23.280;2023-02-19T01:07:35;99182.91;;;5.11;74.71
6194;BME280;3130;41.564;23.280;2023-02-19T01:10:04;99336.03;;;6.16;74.59
6194;BME280;3130;41.564;23.280;2023-02-19T01:12:31;99260.28;;;5.77;75.04
6194;BME280;3130;41.564;23.280;2023-02-19T01:14:59;99140.69;;;5.07;75.80
6194;BME280;3130;41.564;23.280;2023-02-19T01:17:26;99248.72;;;5.67;75.56
6194;BME280;3130;41.564;23.280;2023-02-19T01:19:54;99215.66;;;5.43;75.75
6194;BME280;3130;41.564;23.280;2023-02-19T01:22:21;99311.16;;;6.00;75.25
6194;BME280;3130;41.564;23.280;2023-02-19T01:24:48;99306.84;;;6.02;75.41
6194;BME280;3130;41.564;23.280;2023-02-19T01:27:16;99249.44;;;5.71;75.50
6194;BME280;3130;41.564;23.280;2023-02-19T01:29:43;99236.09;;;5.64;75.06
6194;BME280;3130;41.564;23.280;2023-02-19T01:32:10;99276.59;;;5.95;74.73
6194;BME280;3130;41.564;23.280;2023-02-19T01:34:37;99303.75;;;6.17;74.57
6194;BME280;3130;41.564;23.280;2023-02-19T01:37:05;99211.50;;;5.65;74.05
6194;BME280;3130;41.564;23.280;2023-02-19T01:39:36;99177.25;;;5.50;73.64
6194;BME280;3130;41.564;23.280;2023-02-19T01:42:04;99130.47;;;5.31;73.68
6194;BME280;3130;41.564;23.280;2023-02-19T01:48:03;99318.91;;;6.43;73.28
6194;BME280;3130;41.564;23.280;2023-02-19T01:50:36;99317.97;;;6.45;73.50
6194;BME280;3130;41.564;23.280;2023-02-19T01:53:07;99305.97;;;6.49;73.38
6194;BME280;3130;41.564;23.280;2023-02-19T01:55:35;99314.94;;;6.36;73.62
6194;BME280;3130;41.564;23.280;2023-02-19T01:58:03;99295.91;;;6.23;74.39
6194;BME280;3130;41.564;23.280;2023-02-19T02:00:32;99235.63;;;5.78;74.68
6194;BME280;3130;41.564;23.280;2023-02-19T02:02:59;99133.66;;;5.13;75.27
6194;BME280;3130;41.564;23.280;2023-02-19T02:05:52;99296.94;;;5.95;76.03
6194;BME280;3130;41.564;23.280;2023-02-19T02:08:23;99259.84;;;5.63;76.23
6194;BME280;3130;41.564;23.280;2023-02-19T02:11:08;99269.50;;;5.55;77.04
6194;BME280;3130;41.564;23.280;2023-02-19T02:13:38;99224.00;;;5.23;77.19
6194;BME280;3130;41.564;23.280;2023-02-19T02:16:15;99230.75;;;5.23;77.14
6194;BME280;3130;41.564;23.280;2023-02-19T02:18:54;99294.13;;;5.53;78.02
6194;BME280;3130;41.564;23.280;2023-02-19T02:21:44;99293.72;;;5.41;78.65
6194;BME280;3130;41.564;23.280;2023-02-19T02:27:55;99285.66;;;5.28;78.69
6194;BME280;3130;41.564;23.280;2023-02-19T02:30:43;99239.84;;;5.05;79.04
6194;BME280;3130;41.564;23.280;2023-02-19T02:33:18;99276.75;;;5.41;79.34
6194;BME280;3130;41.564;23.280;2023-02-19T02:35:50;99207.16;;;4.95;79.56
6194;BME280;3130;41.564;23.280;2023-02-19T02:38:21;99248.09;;;5.12;79.35
6194;BME280;3130;41.564;23.280;2023-02-19T02:40:50;99275.28;;;5.34;79.70
6194;BME280;3130;41.564;23.280;2023-02-19T02:43:17;99172.03;;;4.82;78.44
6194;BME280;3130;41.564;23.280;2023-02-19T02:45:46;99182.81;;;4.88;79.00
6194;BME280;3130;41.564;23.280;2023-02-19T02:48:18;99272.38;;;5.45;78.96
6194;BME280;3130;41.564;23.280;2023-02-19T02:50:51;99273.09;;;5.48;78.89
6194;BME280;3130;41.564;23.280;2023-02-19T02:53:23;99283.88;;;5.56;79.42
6194;BME280;3130;41.564;23.280;2023-02-19T02:56:11;99266.06;;;5.32;79.12
6194;BME280;3130;41.564;23.280;2023-02-19T02:58:39;99288.59;;;5.42;79.71
6194;BME280;3130;41.564;23.280;2023-02-19T03:01:11;99290.13;;;5.46;78.71
6194;BME280;3130;41.564;23.280;2023-02-19T03:04:01;99187.53;;;5.00;78.57
6194;BME280;3130;41.564;23.280;2023-02-19T03:06:30;99155.03;;;4.84;78.65
6194;BME280;3130;41.564;23.280;2023-02-19T03:09:03;99174.91;;;4.97;78.14
6194;BME280;3130;41.564;23.280;2023-02-19T03:11:34;99185.19;;;4.94;78.16
6194;BME280;3130;41.564;23.280;2023-02-19T03:14:24;99175.31;;;4.85;78.04
6194;BME280;3130;41.564;23.280;2023-02-19T03:17:17;99309.50;;;5.75;78.75
6194;BME280;3130;41.564;23.280;2023-02-19T03:20:08;99307.47;;;5.86;77.92
6194;BME280;3130;41.564;23.280;2023-02-19T03:22:37;99303.69;;;5.96;77.42
6194;BME280;3130;41.564;23.280;2023-02-19T03:25:10;99305.53;;;5.92;77.47
6194;BME280;3130;41.564;23.280;2023-02-19T03:27:57;99315.47;;;5.98;76.61
6194;BME280;3130;41.564;23.280;2023-02-19T03:30:29;99325.91;;;5.91;76.81
6194;BME280;3130;41.564;23.280;2023-02-19T03:33:00;99294.47;;;5.69;77.27
6194;BME280;3130;41.564;23.280;2023-02-19T03:35:35;99299.56;;;5.67;77.93
6194;BME280;3130;41.564;23.280;2023-02-19T03:38:07;99252.94;;;5.44;78.69
6194;BME280;3130;41.564;23.280;2023-02-19T03:40:42;99300.56;;;5.63;78.31
6194;BME280;3130;41.564;23.280;2023-02-19T03:43:16;99288.53;;;5.44;78.92
6194;BME280;3130;41.564;23.280;2023-02-19T03:45:52;99222.56;;;4.91;79.07
6194;BME280;3130;41.564;23.280;2023-02-19T03:48:30;99209.34;;;4.81;79.85
6194;BME280;3130;41.564;23.280;2023-02-19T03:51:19;99309.00;;;5.15;79.69
6194;BME280;3130;41.564;23.280;2023-02-19T03:53:52;99305.47;;;4.93;81.08
6194;BME280;3130;41.564;23.280;2023-02-19T03:56:29;99314.44;;;5.03;82.11
6194;BME280;3130;41.564;23.280;2023-02-19T03:59:02;99330.00;;;5.20;81.46
6194;BME280;3130;41.564;23.280;2023-02-19T04:01:38;99326.63;;;5.19;81.29
6194;BME280;3130;41.564;23.280;2023-02-19T04:04:12;99318.84;;;5.24;81.08
6194;BME280;3130;41.564;23.280;2023-02-19T04:06:42;99323.41;;;5.14;80.54
6194;BME280;3130;41.564;23.280;2023-02-19T04:09:13;99258.16;;;4.63;80.90
6194;BME280;3130;41.564;23.280;2023-02-19T04:11:42;99329.06;;;4.96;81.19
6194;BME280;3130;41.564;23.280;2023-02-19T04:14:13;99343.00;;;5.11;81.88
6194;BME280;3130;41.564;23.280;2023-02-19T04:16:46;99353.72;;;5.20;81.58
6194;BME280;3130;41.564;23.280;2023-02-19T04:19:19;99352.22;;;5.15;81.62
6194;BME280;3130;41.564;23.280;2023-02-19T04:21:48;99354.00;;;5.11;81.68
6194;BME280;3130;41.564;23.280;2023-02-19T04:24:20;99340.88;;;4.97;81.85
6194;BME280;3130;41.564;23.280;2023-02-19T04:26:48;99329.94;;;4.68;81.76
6194;BME280;3130;41.564;23.280;2023-02-19T04:29:15;99353.97;;;4.86;82.34
6194;BME280;3130;41.564;23.280;2023-02-19T04:31:42;99319.38;;;4.54;82.04
6194;BME280;3130;41.564;23.280;2023-02-19T04:34:10;99364.59;;;4.71;83.09
6194;BME280;3130;41.564;23.280;2023-02-19T04:36:38;99229.97;;;3.87;83.40
6194;BME280;3130;41.564;23.280;2023-02-19T04:39:05;99362.22;;;4.65;83.87
6194;BME280;3130;41.564;23.280;2023-02-19T04:41:32;99322.22;;;4.44;83.94
6194;BME280;3130;41.564;23.280;2023-02-19T04:43:59;99350.31;;;4.67;83.93
6194;BME280;3130;41.564;23.280;2023-02-19T04:46:26;99334.47;;;4.59;83.50
6194;BME280;3130;41.564;23.280;2023-02-19T04:48:54;99269.53;;;4.23;83.60
6194;BME280;3130;41.564;23.280;2023-02-19T04:51:21;99352.38;;;4.54;83.43
6194;BME280;3130;41.564;23.280;2023-02-19T04:53:50;99353.44;;;4.47;83.79
6194;BME280;3130;41.564;23.280;2023-02-19T04:56:17;99252.94;;;3.83;84.18
6194;BME280;3130;41.564;23.280;2023-02-19T04:58:44;99314.94;;;4.03;85.14
6194;BME280;3130;41.564;23.280;2023-02-19T05:01:12;99218.44;;;3.47;85.20
6194;BME280;3130;41.564;23.280;2023-02-19T05:03:39;99357.41;;;4.27;85.94
6194;BME280;3130;41.564;23.280;2023-02-19T05:06:09;99355.94;;;4.18;86.18
6194;BME280;3130;41.564;23.280;2023-02-19T05:08:37;99337.88;;;3.98;86.94
6194;BME280;3130;41.564;23.280;2023-02-19T05:11:08;99276.59;;;3.53;86.84
6194;BME280;3130;41.564;23.280;2023-02-19T05:13:37;99281.53;;;3.59;87.63
6194;BME280;3130;41.564;23.280;2023-02-19T05:16:08;99351.22;;;4.06;87.39
6194;BME280;3130;41.564;23.280;2023-02-19T05:18:38;99361.75;;;4.22;87.04
6194;BME280;3130;41.564;23.280;2023-02-19T05:21:06;99242.97;;;3.46;87.29
6194;BME280;3130;41.564;23.280;2023-02-19T05:23:33;99330.41;;;3.94;87.28
6194;BME280;3130;41.564;23.280;2023-02-19T05:26:06;99250.66;;;3.43;86.73
6194;BME280;3130;41.564;23.280;2023-02-19T05:28:34;99353.03;;;4.01;87.99
6194;BME280;3130;41.564;23.280;2023-02-19T05:31:04;99354.84;;;3.98;88.33
6194;BME280;3130;41.564;23.280;2023-02-19T05:33:32;99374.97;;;4.04;87.98
6194;BME280;3130;41.564;23.280;2023-02-19T05:36:02;99369.97;;;4.01;88.18
6194;BME280;3130;41.564;23.280;2023-02-19T05:38:30;99267.47;;;3.47;88.27
6194;BME280;3130;41.564;23.280;2023-02-19T05:41:07;99378.03;;;4.15;88.84
6194;BME280;3130;41.564;23.280;2023-02-19T05:43:34;99370.28;;;4.19;89.08
6194;BME280;3130;41.564;23.280;2023-02-19T05:46:03;99222.47;;;3.23;88.03
6194;BME280;3130;41.564;23.280;2023-02-19T05:48:31;99349.50;;;4.07;88.55
6194;BME280;3130;41.564;23.280;2023-02-19T05:51:01;99218.00;;;3.33;88.38
6194;BME280;3130;41.564;23.280;2023-02-19T05:53:28;99323.75;;;3.90;87.76
6194;BME280;3130;41.564;23.280;2023-02-19T05:55:56;99285.88;;;3.84;88.00
6194;BME280;3130;41.564;23.280;2023-02-19T05:58:26;99296.19;;;4.08;87.89
6194;BME280;3130;41.564;23.280;2023-02-19T06:00:53;99241.78;;;3.90;86.74
6194;BME280;3130;41.564;23.280;2023-02-19T06:03:21;99418.59;;;5.04;85.15
6194;BME280;3130;41.564;23.280;2023-02-19T06:05:49;99379.00;;;4.97;84.14
6194;BME280;3130;41.564;23.280;2023-02-19T06:08:16;99289.19;;;4.45;82.59
6194;BME280;3130;41.564;23.280;2023-02-19T06:10:44;99328.66;;;4.83;81.54
6194;BME280;3130;41.564;23.280;2023-02-19T06:13:11;99255.06;;;4.54;80.57
6194;BME280;3130;41.564;23.280;2023-02-19T06:15:40;99436.13;;;5.67;80.99
6194;BME280;3130;41.564;23.280;2023-02-19T06:18:07;99381.91;;;5.39;80.10
6194;BME280;3130;41.564;23.280;2023-02-19T06:20:35;99300.06;;;5.02;79.43
6194;BME280;3130;41.564;23.280;2023-02-19T06:23:02;99322.84;;;5.05;79.24
6194;BME280;3130;41.564;23.280;2023-02-19T06:25:29;99275.94;;;4.63;79.67
6194;BME280;3130;41.564;23.280;2023-02-19T06:27:56;99325.72;;;4.94;80.20
6194;BME280;3130;41.564;23.280;2023-02-19T06:30:23;99452.22;;;5.67;79.99
6194;BME280;3130;41.564;23.280;2023-02-19T06:32:53;99300.00;;;4.78;80.85
6194;BME280;3130;41.564;23.280;2023-02-19T06:35:20;99361.38;;;5.19;81.60
6194;BME280;3130;41.564;23.280;2023-02-19T06:37:47;99432.47;;;5.74;82.16
6194;BME280;3130;41.564;23.280;2023-02-19T06:40:15;99431.28;;;5.85;82.25
6194;BME280;3130;41.564;23.280;2023-02-19T06:42:43;99449.53;;;5.97;81.97
6194;BME280;3130;41.564;23.280;2023-02-19T06:45:10;99342.78;;;5.44;81.25
6194;BME280;3130;41.564;23.280;2023-02-19T06:47:37;99431.56;;;6.02;81.15
6194;BME280;3130;41.564;23.280;2023-02-19T06:50:07;99446.56;;;6.09;81.00
6194;BME280;3130;41.564;23.280;2023-02-19T06:52:34;99334.81;;;5.53;80.35
6194;BME280;3130;41.564;23.280;2023-02-19T06:55:02;99445.75;;;6.33;80.36
6194;BME280;3130;41.564;23.280;2023-02-19T06:57:29;99427.66;;;6.41;79.51
6194;BME280;3130;41.564;23.280;2023-02-19T06:59:56;99428.41;;;6.67;78.78
6194;BME280;3130;41.564;23.280;2023-02-19T07:02:24;99440.69;;;7.02;78.01
6194;BME280;3130;41.564;23.280;2023-02-19T07:04:51;99417.09;;;7.18;75.79
6194;BME280;3130;41.564;23.280;2023-02-19T07:07:20;99315.22;;;6.73;74.17
6194;BME280;3130;41.564;23.280;2023-02-19T07:09:47;99400.53;;;7.50;73.19
6194;BME280;3130;41.564;23.280;2023-02-19T07:12:14;99388.81;;;7.66;71.68
6194;BME280;3130;41.564;23.280;2023-02-19T07:14:41;99433.69;;;8.11;69.73
6194;BME280;3130;41.564;23.280;2023-02-19T07:17:09;99310.91;;;7.57;69.20
6194;BME280;3130;41.564;23.280;2023-02-19T07:19:37;99428.84;;;8.45;68.46
6194;BME280;3130;41.564;23.280;2023-02-19T07:22:04;99401.25;;;8.53;67.50
6194;BME280;3130;41.564;23.280;2023-02-19T07:24:33;99437.19;;;9.05;66.57
6194;BME280;3130;41.564;23.280;2023-02-19T07:27:00;99392.84;;;9.23;65.07
6194;BME280;3130;41.564;23.280;2023-02-19T07:29:28;99434.88;;;10.06;63.09
6194;BME280;3130;41.564;23.280;2023-02-19T07:31:55;99408.16;;;10.60;59.92
6194;BME280;3130;41.564;23.280;2023-02-19T07:34:23;99419.13;;;11.40;56.72
6194;BME280;3130;41.564;23.280;2023-02-19T07:36:50;99424.75;;;12.21;53.81
6194;BME280;3130;41.564;23.280;2023-02-19T07:39:18;99326.41;;;12.17;50.51
6194;BME280;3130;41.564;23.280;2023-02-19T07:41:47;99436.75;;;13.32;47.81
6194;BME280;3130;41.564;23.280;2023-02-19T07:44:14;99389.84;;;13.41;46.22
6194;BME280;3130;41.564;23.280;2023-02-19T07:46:41;99432.53;;;14.22;44.42
6194;BME280;3130;41.564;23.280;2023-02-19T07:49:09;99362.28;;;14.31;43.58
6194;BME280;3130;41.564;23.280;2023-02-19T07:51:36;99409.19;;;15.22;42.20
6194;BME280;3130;41.564;23.280;2023-02-19T07:54:04;99417.94;;;15.68;40.54
6194;BME280;3130;41.564;23.280;2023-02-19T07:56:32;99414.03;;;15.97;39.33
6194;BME280;3130;41.564;23.280;2023-02-19T07:59:01;99427.75;;;16.20;38.81
6194;BME280;3130;41.564;23.280;2023-02-19T08:01:29;99429.06;;;16.26;38.72
6194;BME280;3130;41.564;23.280;2023-02-19T08:04:14;99379.47;;;16.32;39.50
6194;BME280;3130;41.564;23.280;2023-02-19T08:06:41;99424.31;;;17.09;37.10
6194;BME280;3130;41.564;23.280;2023-02-19T08:09:09;99333.41;;;16.90;37.06
6194;BME280;3130;41.564;23.280;2023-02-19T08:11:37;99305.38;;;16.95;36.83
6194;BME280;3130;41.564;23.280;2023-02-19T08:14:24;99406.03;;;18.16;36.21
6194;BME280;3130;41.564;23.280;2023-02-19T08:16:52;99400.56;;;18.18;35.86
6194;BME280;3130;41.564;23.280;2023-02-19T08:19:20;99393.38;;;18.22;35.58
6194;BME280;3130;41.564;23.280;2023-02-19T08:21:47;99399.31;;;18.54;35.29
6194;BME280;3130;41.564;23.280;2023-02-19T08:24:16;99335.88;;;18.56;34.28
6194;BME280;3130;41.564;23.280;2023-02-19T08:26:44;99346.47;;;18.74;33.93
6194;BME280;3130;41.564;23.280;2023-02-19T08:29:14;99254.56;;;18.65;34.43
6194;BME280;3130;41.564;23.280;2023-02-19T08:31:44;99290.75;;;19.25;32.99
6194;BME280;3130;41.564;23.280;2023-02-19T08:34:11;99353.47;;;20.07;33.79
6194;BME280;3130;41.564;23.280;2023-02-19T08:36:38;99328.59;;;20.22;32.38
6194;BME280;3130;41.564;23.280;2023-02-19T08:39:06;99370.44;;;20.57;31.78
6194;BME280;3130;41.564;23.280;2023-02-19T08:41:33;99310.13;;;19.97;32.63
6194;BME280;3130;41.564;23.280;2023-02-19T08:44:00;99372.91;;;20.03;34.05
6194;BME280;3130;41.564;23.280;2023-02-19T08:46:27;99364.03;;;19.68;33.39
6194;BME280;3130;41.564;23.280;2023-02-19T08:48:56;99373.50;;;19.01;34.59
6194;BME280;3130;41.564;23.280;2023-02-19T08:51:23;99375.69;;;18.16;36.87
6194;BME280;3130;41.564;23.280;2023-02-19T08:53:53;99297.97;;;17.22;37.52
6194;BME280;3130;41.564;23.280;2023-02-19T08:56:20;99348.88;;;17.23;38.49
6194;BME280;3130;41.564;23.280;2023-02-19T08:58:47;99369.66;;;16.79;39.47
6194;BME280;3130;41.564;23.280;2023-02-19T09:01:16;99368.38;;;16.52;40.54
6194;BME280;3130;41.564;23.280;2023-02-19T09:03:43;99357.41;;;16.26;41.39
6194;BME280;3130;41.564;23.280;2023-02-19T09:06:16;99268.97;;;15.54;41.69
6194;BME280;3130;41.564;23.280;2023-02-19T09:08:43;99278.66;;;15.74;41.61
6194;BME280;3130;41.564;23.280;2023-02-19T09:11:10;99346.69;;;16.20;41.66
6194;BME280;3130;41.564;23.280;2023-02-19T09:13:38;99329.75;;;16.16;41.60
6194;BME280;3130;41.564;23.280;2023-02-19T09:16:05;99341.72;;;16.17;40.79
6194;BME280;3130;41.564;23.280;2023-02-19T09:18:32;99339.28;;;16.05;41.23
6194;BME280;3130;41.564;23.280;2023-02-19T09:21:00;99303.78;;;15.61;41.97
6194;BME280;3130;41.564;23.280;2023-02-19T09:23:31;99249.53;;;15.14;42.15
6194;BME280;3130;41.564;23.280;2023-02-19T09:25:59;99329.97;;;15.57;43.23
6194;BME280;3130;41.564;23.280;2023-02-19T09:28:27;99319.97;;;15.52;43.05
6194;BME280;3130;41.564;23.280;2023-02-19T09:30:58;99310.97;;;15.34;43.48
6194;BME280;3130;41.564;23.280;2023-02-19T09:33:31;99254.91;;;15.01;43.96
6194;BME280;3130;41.564;23.280;2023-02-19T09:35:59;99296.41;;;15.33;43.64
6194;BME280;3130;41.564;23.280;2023-02-19T09:38:27;99303.53;;;15.53;42.98
6194;BME280;3130;41.564;23.280;2023-02-19T09:40:58;99248.38;;;15.31;43.48
6194;BME280;3130;41.564;23.280;2023-02-19T09:43:27;99276.88;;;15.53;43.23
6194;BME280;3130;41.564;23.280;2023-02-19T09:46:01;99280.75;;;15.69;45.63
6194;BME280;3130;41.564;23.280;2023-02-19T09:48:29;99273.00;;;15.69;42.51
6194;BME280;3130;41.564;23.280;2023-02-19T09:50:57;99234.66;;;15.41;43.05
6194;BME280;3130;41.564;23.280;2023-02-19T09:53:30;99194.09;;;15.31;43.36
6194;BME280;3130;41.564;23.280;2023-02-19T09:56:05;99269.63;;;15.80;42.00
6194;BME280;3130;41.564;23.280;2023-02-19T09:58:34;99259.03;;;15.72;41.57
6194;BME280;3130;41.564;23.280;2023-02-19T10:01:04;99183.75;;;15.31;42.92
6194;BME280;3130;41.564;23.280;2023-02-19T10:03:34;99262.00;;;15.89;43.85
6194;BME280;3130;41.564;23.280;2023-02-19T10:06:06;99245.41;;;15.81;42.15
6194;BME280;3130;41.564;23.280;2023-02-19T10:08:34;99199.63;;;15.48;42.08
6194;BME280;3130;41.564;23.280;2023-02-19T10:11:05;99195.78;;;15.54;42.45
6194;BME280;3130;41.564;23.280;2023-02-19T10:13:36;99200.59;;;15.69;42.18
6194;BME280;3130;41.564;23.280;2023-02-19T10:16:11;99240.03;;;16.06;42.44
6194;BME280;3130;41.564;23.280;2023-02-19T10:18:51;99237.91;;;16.21;41.70
6194;BME280;3130;41.564;23.280;2023-02-19T10:21:39;99095.31;;;15.49;42.00
6194;BME280;3130;41.564;23.280;2023-02-19T10:24:13;99220.84;;;16.30;40.72
6194;BME280;3130;41.564;23.280;2023-02-19T10:26:44;99078.50;;;15.66;40.54
6194;BME280;3130;41.564;23.280;2023-02-19T10:29:13;99214.16;;;16.70;40.34
6194;BME280;3130;41.564;23.280;2023-02-19T10:31:41;99135.50;;;16.50;40.29
6194;BME280;3130;41.564;23.280;2023-02-19T10:34:16;99176.25;;;17.00;38.70
6194;BME280;3130;41.564;23.280;2023-02-19T10:36:46;99196.47;;;17.37;39.70
6194;BME280;3130;41.564;23.280;2023-02-19T10:39:34;99111.69;;;17.08;37.78
6194;BME280;3130;41.564;23.280;2023-02-19T10:42:18;99193.00;;;17.78;36.14
6194;BME280;3130;41.564;23.280;2023-02-19T10:44:50;99176.00;;;17.94;35.71
6194;BME280;3130;41.564;23.280;2023-02-19T10:47:20;99182.22;;;18.21;34.95
6194;BME280;3130;41.564;23.280;2023-02-19T10:49:49;99174.22;;;18.24;34.68
6194;BME280;3130;41.564;23.280;2023-02-19T10:52:20;99159.81;;;18.20;34.85
6194;BME280;3130;41.564;23.280;2023-02-19T10:54:50;99146.69;;;18.13;34.40
6194;BME280;3130;41.564;23.280;2023-02-19T10:57:27;99157.00;;;18.33;34.56
6194;BME280;3130;41.564;23.280;2023-02-19T11:00:01;99159.63;;;18.52;34.88
6194;BME280;3130;41.564;23.280;2023-02-19T11:02:29;99138.72;;;18.63;34.88
6194;BME280;3130;41.564;23.280;2023-02-19T11:05:13;99087.88;;;18.41;33.63
6194;BME280;3130;41.564;23.280;2023-02-19T11:07:44;99137.38;;;18.87;33.86
6194;BME280;3130;41.564;23.280;2023-02-19T11:10:21;99105.38;;;18.58;34.24
6194;BME280;3130;41.564;23.280;2023-02-19T11:12:52;99068.03;;;18.40;34.63
6194;BME280;3130;41.564;23.280;2023-02-19T11:15:21;99123.53;;;18.58;32.95
6194;BME280;3130;41.564;23.280;2023-02-19T11:18:03;99105.38;;;18.49;32.82
6194;BME280;3130;41.564;23.280;2023-02-19T11:20:31;99010.31;;;17.90;33.08
6194;BME280;3130;41.564;23.280;2023-02-19T11:23:00;99108.66;;;18.70;34.73
6194;BME280;3130;41.564;23.280;2023-02-19T11:25:30;99009.44;;;18.38;34.12
6194;BME280;3130;41.564;23.280;2023-02-19T11:28:02;99010.78;;;18.51;35.23
6194;BME280;3130;41.564;23.280;2023-02-19T11:30:37;98945.03;;;18.22;33.02
6194;BME280;3130;41.564;23.280;2023-02-19T11:33:29;99055.31;;;18.56;33.12
6194;BME280;3130;41.564;23.280;2023-02-19T11:36:22;99079.91;;;18.71;32.90
6194;BME280;3130;41.564;23.280;2023-02-19T11:38:51;99088.69;;;18.80;32.75
6194;BME280;3130;41.564;23.280;2023-02-19T11:41:26;99075.28;;;18.84;32.35
6194;BME280;3130;41.564;23.280;2023-02-19T11:44:07;99024.13;;;18.66;32.00
6194;BME280;3130;41.564;23.280;2023-02-19T11:46:43;99068.78;;;18.98;32.13
6194;BME280;3130;41.564;23.280;2023-02-19T11:49:20;98952.56;;;18.44;32.54
6194;BME280;3130;41.564;23.280;2023-02-19T11:52:03;98997.06;;;18.78;32.39
6194;BME280;3130;41.564;23.280;2023-02-19T11:54:50;99061.59;;;19.37;31.50
6194;BME280;3130;41.564;23.280;2023-02-19T11:57:34;99043.22;;;19.48;31.39
6194;BME280;3130;41.564;23.280;2023-02-19T12:00:20;98961.78;;;19.21;32.48
6194;BME280;3130;41.564;23.280;2023-02-19T12:03:25;99049.78;;;19.79;31.19
6194;BME280;3130;41.564;23.280;2023-02-19T12:06:19;99029.75;;;19.80;31.12
6194;BME280;3130;41.564;23.280;2023-02-19T12:09:10;99038.03;;;20.02;31.62
6194;BME280;3130;41.564;23.280;2023-02-19T12:11:51;98965.59;;;19.71;31.96
6194;BME280;3130;41.564;23.280;2023-02-19T12:14:44;98964.75;;;19.53;30.88
6194;BME280;3130;41.564;23.280;2023-02-19T12:17:25;98980.84;;;19.83;33.49
6194;BME280;3130;41.564;23.280;2023-02-19T12:20:07;99020.50;;;20.29;30.74
6194;BME280;3130;41.564;23.280;2023-02-19T12:22:43;99030.13;;;20.46;31.04
6194;BME280;3130;41.564;23.280;2023-02-19T12:25:27;99003.41;;;20.44;29.55
6194;BME280;3130;41.564;23.280;2023-02-19T12:28:11;99011.63;;;20.57;29.77
6194;BME280;3130;41.564;23.280;2023-02-19T12:31:09;98914.22;;;20.08;30.99
6194;BME280;3130;41.564;23.280;2023-02-19T12:34:03;98988.75;;;20.69;29.93
6194;BME280;3130;41.564;23.280;2023-02-19T12:36:42;98968.56;;;20.71;30.72
6194;BME280;3130;41.564;23.280;2023-02-19T12:39:23;98982.22;;;20.90;29.54
6194;BME280;3130;41.564;23.280;2023-02-19T12:41:59;98897.59;;;20.26;29.65
6194;BME280;3130;41.564;23.280;2023-02-19T12:44:37;98971.50;;;20.93;29.79
6194;BME280;3130;41.564;23.280;2023-02-19T12:47:07;98966.31;;;21.01;29.14
6194;BME280;3130;41.564;23.280;2023-02-19T12:49:47;98880.97;;;20.52;30.19
6194;BME280;3130;41.564;23.280;2023-02-19T12:52:19;98890.63;;;20.60;29.08
6194;BME280;3130;41.564;23.280;2023-02-19T12:54:50;98952.22;;;21.20;31.11
6194;BME280;3130;41.564;23.280;2023-02-19T12:57:21;98933.34;;;21.33;29.32
6194;BME280;3130;41.564;23.280;2023-02-19T12:59:53;98953.31;;;21.50;30.37
6194;BME280;3130;41.564;23.280;2023-02-19T13:02:24;98942.34;;;21.39;28.06
6194;BME280;3130;41.564;23.280;2023-02-19T13:04:59;98933.75;;;21.05;29.04
6194;BME280;3130;41.564;23.280;2023-02-19T13:07:34;98936.69;;;21.10;28.71
6194;BME280;3130;41.564;23.280;2023-02-19T13:10:16;98924.84;;;21.24;28.93
6194;BME280;3130;41.564;23.280;2023-02-19T13:12:46;98858.25;;;20.96;27.72
6194;BME280;3130;41.564;23.280;2023-02-19T13:15:28;98913.63;;;21.39;27.75
6194;BME280;3130;41.564;23.280;2023-02-19T13:17:58;98914.03;;;21.52;28.17
6194;BME280;3130;41.564;23.280;2023-02-19T13:20:30;98870.22;;;21.14;27.51
6194;BME280;3130;41.564;23.280;2023-02-19T13:23:03;98890.19;;;21.47;27.36
6194;BME280;3130;41.564;23.280;2023-02-19T13:26:14;98890.75;;;21.74;27.11
6194;BME280;3130;41.564;23.280;2023-02-19T13:29:00;98883.72;;;21.99;30.53
6194;BME280;3130;41.564;23.280;2023-02-19T13:31:43;98886.00;;;22.10;26.46
6194;BME280;3130;41.564;23.280;2023-02-19T13:34:23;98876.03;;;22.21;26.75
6194;BME280;3130;41.564;23.280;2023-02-19T13:36:55;98852.72;;;21.96;26.55
6194;BME280;3130;41.564;23.280;2023-02-19T13:39:23;98889.63;;;21.85;26.38
6194;BME280;3130;41.564;23.280;2023-02-19T13:41:51;98876.22;;;21.64;26.72
6194;BME280;3130;41.564;23.280;2023-02-19T13:44:22;98887.16;;;21.83;27.39
6194;BME280;3130;41.564;23.280;2023-02-19T13:46:50;98820.38;;;21.57;26.37
6194;BME280;3130;41.564;23.280;2023-02-19T13:52:36;98875.91;;;21.99;26.33